Time;durP1;ratioP1;P1;durP2;ratioP2;P2;SDS_P1;SDS_P2;PMS_P1;PMS_P2;Temp;Humidity;BMP_temperature;BMP_pressure;BME280_temperature;BME280_humidity;BME280_pressure;Samples;Min_cycle;Max_cycle;Signal;HPM_P1;HPM_P2
2023/08/24 00:01:12;;;;;;;;;;;;;;;;;;5072138;28;5137;-59
2023/08/24 00:03:37;;;;;;;;;;;;;;;;;;5067680;28;5185;-58
2023/08/24 00:06:03;;;;;;;;;;;;;;;;;;5074177;28;5085;-59
2023/08/24 00:08:28;;;;;;;;;;;;;;;;;;5066173;28;4470;-58
2023/08/24 00:10:54;;;;;;;;;;;;;;;;;;5050425;28;3233;-58
2023/08/24 00:13:19;;;;;;;;;;;;;;;;;;5081179;28;5093;-57
2023/08/24 00:15:45;;;;;;;;;;;;;;;;;;5077438;28;5126;-56
2023/08/24 00:18:10;;;;;;;;;;;;;;;;;;5082826;28;5073;-58
2023/08/24 00:20:36;;;;;;;;;;;;;;;;;;5076395;28;5028;-58
2023/08/24 00:23:02;;;;;;;;;;;;;;;;;;5058096;28;3352;-57
2023/08/24 00:25:27;;;;;;;;;;;;;;;;;;5074853;28;4965;-58
2023/08/24 00:27:53;;;;;;;;;;;;;;;;;;5081675;28;5053;-58
2023/08/24 00:30:18;;;;;;;;;;;;;;;;;;5057544;28;5246;-58
2023/08/24 00:32:44;;;;;;;;;;;;;;;;;;5048541;28;4969;-58
2023/08/24 00:35:10;;;;;;;;;;;;;;;;;;5082843;28;5141;-58
2023/08/24 00:37:35;;;;;;;;;;;;;;;;;;5079383;28;5063;-57
2023/08/24 00:40:19;;;;;;;;;;;;;;;;;;5081354;28;4465;-58
2023/08/24 00:42:45;;;;;;;;;;;;;;;;;;5080605;28;4938;-57
2023/08/24 00:45:11;;;;;;;;;;;;;;;;;;5064026;28;5525;-58
2023/08/24 00:47:37;;;;;;;;;;;;;;;;;;5070529;28;4494;-57
2023/08/24 00:50:03;;;;;;;;;;;;;;;;;;5076536;28;3290;-57
2023/08/24 00:52:28;;;;;;;;;;;;;;;;;;5065513;28;5036;-57
2023/08/24 00:54:54;;;;;;;;;;;;;;;;;;5067900;28;5118;-58
2023/08/24 00:57:19;;;;;;;;;;;;;;;;;;5054135;28;4804;-58
2023/08/24 00:59:45;;;;;;;;;;;;;;;;;;5079925;28;4644;-58
2023/08/24 01:02:11;;;;;;;;;;;;;;;;;;5074891;28;2027;-57
2023/08/24 01:04:36;;;;;;;;;;;;;;;;;;5079855;28;6300;-58
2023/08/24 01:07:02;;;;;;;;;;;;;;;;;;5059909;28;5199;-57
2023/08/24 01:09:27;;;;;;;;;;;;;;;;;;5072160;28;4492;-58
2023/08/24 01:11:57;;;;;;;;;;;;;;;;;;5070232;28;4854;-58
2023/08/24 01:14:41;;;;;;;;;;;;;;;;;;5052611;28;2305;-57
2023/08/24 01:17:07;;;;;;;;;;;;;;;;;;5073257;28;4934;-58
2023/08/24 01:19:42;;;;;;;;;;;;;;;;;;5048905;28;4457;-58
2023/08/24 01:22:14;;;;;;;;;;;;;;;;;;5074259;28;5062;-58
2023/08/24 01:24:45;;;;;;;;;;;;;;;;;;5031896;28;4891;-58
2023/08/24 01:27:10;;;;;;;;;;;;;;;;;;5075834;28;4464;-57
2023/08/24 01:29:35;;;;;;;;;;;;;;;;;;5077213;28;4448;-56
2023/08/24 01:32:01;;;;;;;;;;;;;;;;;;5074696;28;3301;-58
2023/08/24 01:34:26;;;;;;;;;;;;;;;;;;5076716;28;5039;-58
2023/08/24 01:36:51;;;;;;;;;;;;;;;;;;5075868;28;4760;-58
2023/08/24 01:39:26;;;;;;;;;;;;;;;;;;5062244;28;5075;-57
2023/08/24 01:41:52;;;;;;;;;;;;;;;;;;5080665;28;5227;-57
2023/08/24 01:44:17;;;;;;;;;;;;;;;;;;5079937;28;3083;-58
2023/08/24 01:46:43;;;;;;;;;;;;;;;;;;5050721;28;5022;-58
2023/08/24 01:49:08;;;;;;;;;;;;;;;;;;5051693;28;4603;-57
2023/08/24 01:51:33;;;;;;;;;;;;;;;;;;5057991;28;5289;-57
2023/08/24 01:53:59;;;;;;;;;;;;;;;;;;5050873;28;4729;-56
2023/08/24 01:56:24;;;;;;;;;;;;;;;;;;5080704;28;3199;-58
2023/08/24 01:58:50;;;;;;;;;;;;;;;;;;5095049;28;4890;-58
2023/08/24 02:01:15;;;;;;;;;;;;;;;;;;5089962;28;4689;-58
2023/08/24 02:03:40;;;;;;;;;;;;;;;;;;5096845;28;4815;-58
2023/08/24 02:06:06;;;;;;;;;;;;;;;;;;5096320;28;4971;-58
2023/08/24 02:08:32;;;;;;;;;;;;;;;;;;5089051;28;5340;-58
2023/08/24 02:10:57;;;;;;;;;;;;;;;;;;5067257;28;3317;-58
2023/08/24 02:13:22;;;;;;;;;;;;;;;;;;5074433;28;5036;-59
2023/08/24 02:15:47;;;;;;;;;;;;;;;;;;5086912;28;4992;-58
2023/08/24 02:18:13;;;;;;;;;;;;;;;;;;5092008;28;5006;-58
2023/08/24 02:20:38;;;;;;;;;;;;;;;;;;5093542;28;4456;-58
2023/08/24 02:23:04;;;;;;;;;;;;;;;;;;5092901;28;3216;-58
2023/08/24 02:25:29;;;;;;;;;;;;;;;;;;5074068;28;4441;-57
2023/08/24 02:27:54;;;;;;;;;;;;;;;;;;5098468;28;5005;-58
2023/08/24 02:30:20;;;;;;;;;;;;;;;;;;5091223;28;4516;-58
2023/08/24 02:32:45;;;;;;;;;;;;;;;;;;5104505;28;5071;-57
2023/08/24 02:35:10;;;;;;;;;;;;;;;;;;5095239;28;5129;-59
2023/08/24 02:37:35;;;;;;;;;;;;;;;;;;5089793;28;5011;-58
2023/08/24 02:40:01;;;;;;;;;;;;;;;;;;5094311;28;4583;-58
2023/08/24 02:42:26;;;;;;;;;;;;;;;;;;5098825;28;5081;-58
2023/08/24 02:44:52;;;;;;;;;;;;;;;;;;5094132;28;4441;-59
2023/08/24 02:47:17;;;;;;;;;;;;;;;;;;5085502;28;3521;-58
2023/08/24 02:49:42;;;;;;;;;;;;;;;;;;5094517;28;4442;-58
2023/08/24 02:52:08;;;;;;;;;;;;;;;;;;5099683;28;4918;-58
2023/08/24 02:54:33;;;;;;;;;;;;;;;;;;5087384;28;5119;-58
2023/08/24 02:56:58;;;;;;;;;;;;;;;;;;5089215;28;5095;-58
2023/08/24 02:59:23;;;;;;;;;;;;;;;;;;5100829;28;1334;-58
2023/08/24 03:01:49;;;;;;;;;;;;;;;;;;5089448;28;5088;-59
2023/08/24 03:04:14;;;;;;;;;;;;;;;;;;5087376;28;5004;-57
2023/08/24 03:06:39;;;;;;;;;;;;;;;;;;5100419;28;4961;-58
2023/08/24 03:09:04;;;;;;;;;;;;;;;;;;5091852;28;4880;-59
2023/08/24 03:11:30;;;;;;;;;;;;;;;;;;5087444;28;4988;-59
2023/08/24 03:13:55;;;;;;;;;;;;;;;;;;5098084;28;2510;-59
2023/08/24 03:16:20;;;;;;;;;;;;;;;;;;5090122;28;5387;-58
2023/08/24 03:18:45;;;;;;;;;;;;;;;;;;5089015;28;4902;-60
2023/08/24 03:21:11;;;;;;;;;;;;;;;;;;5090355;28;5111;-58
2023/08/24 03:23:36;;;;;;;;;;;;;;;;;;5090466;28;5000;-60
2023/08/24 03:26:01;;;;;;;;;;;;;;;;;;5091296;28;1532;-60
2023/08/24 03:28:26;;;;;;;;;;;;;;;;;;5089013;28;4943;-59
2023/08/24 03:30:52;;;;;;;;;;;;;;;;;;5096044;28;4497;-59
2023/08/24 03:33:17;;;;;;;;;;;;;;;;;;5088202;28;4991;-58
2023/08/24 03:35:42;;;;;;;;;;;;;;;;;;5101213;28;5221;-59
2023/08/24 03:38:08;;;;;;;;;;;;;;;;;;5093105;28;3102;-59
2023/08/24 03:40:33;;;;;;;;;;;;;;;;;;5098551;28;4996;-58
2023/08/24 03:42:58;;;;;;;;;;;;;;;;;;5091524;28;5407;-58
2023/08/24 03:45:24;;;;;;;;;;;;;;;;;;5086097;28;5343;-59
2023/08/24 03:47:49;;;;;;;;;;;;;;;;;;5091953;28;5250;-59
2023/08/24 03:50:14;;;;;;;;;;;;;;;;;;5102762;28;2299;-58
2023/08/24 03:52:40;;;;;;;;;;;;;;;;;;5098138;28;5212;-59
2023/08/24 03:55:06;;;;;;;;;;;;;;;;;;5098944;28;5137;-60
2023/08/24 03:57:31;;;;;;;;;;;;;;;;;;5094273;28;5074;-59
2023/08/24 03:59:57;;;;;;;;;;;;;;;;;;5092616;28;4739;-60
2023/08/24 04:02:22;;;;;;;;;;;;;;;;;;5101857;28;3644;-59
2023/08/24 04:04:47;;;;;;;;;;;;;;;;;;5092237;28;4372;-60
2023/08/24 04:07:13;;;;;;;;;;;;;;;;;;5104158;28;5002;-60
2023/08/24 04:09:38;;;;;;;;;;;;;;;;;;5095479;28;5222;-59
2023/08/24 04:12:03;;;;;;;;;;;;;;;;;;5097303;28;5037;-58
2023/08/24 04:14:28;;;;;;;;;;;;;;;;;;5091817;28;6172;-59
2023/08/24 04:16:54;;;;;;;;;;;;;;;;;;5097267;28;3276;-57
2023/08/24 04:19:19;;;;;;;;;;;;;;;;;;5096591;28;4961;-59
2023/08/24 04:21:44;;;;;;;;;;;;;;;;;;5091773;28;5028;-60
2023/08/24 04:24:10;;;;;;;;;;;;;;;;;;5093758;28;4648;-59
2023/08/24 04:26:35;;;;;;;;;;;;;;;;;;5098848;28;4855;-59
2023/08/24 04:29:00;;;;;;;;;;;;;;;;;;5096553;28;1450;-59
2023/08/24 04:31:25;;;;;;;;;;;;;;;;;;5089001;28;5276;-59
2023/08/24 04:33:51;;;;;;;;;;;;;;;;;;5080309;28;4925;-58
2023/08/24 04:36:16;;;;;;;;;;;;;;;;;;5073787;28;5161;-59
2023/08/24 04:38:41;;;;;;;;;;;;;;;;;;5072256;28;4671;-59
2023/08/24 04:41:08;;;;;;;;;;;;;;;;;;5075376;28;3058;-59
2023/08/24 04:43:33;;;;;;;;;;;;;;;;;;5073891;28;5026;-58
2023/08/24 04:45:58;;;;;;;;;;;;;;;;;;5068704;28;4462;-60
2023/08/24 04:48:24;;;;;;;;;;;;;;;;;;5074931;28;5098;-60
2023/08/24 04:50:49;;;;;;;;;;;;;;;;;;5073083;28;5021;-59
2023/08/24 04:53:16;;;;;;;;;;;;;;;;;;5067485;28;1921;-60
2023/08/24 04:55:41;;;;;;;;;;;;;;;;;;5070583;28;5037;-58
2023/08/24 04:58:09;;;;;;;;;;;;;;;;;;5084829;28;5161;-59
2023/08/24 05:00:35;;;;;;;;;;;;;;;;;;5046990;28;5147;-59
2023/08/24 05:03:01;;;;;;;;;;;;;;;;;;5076453;28;5189;-59
2023/08/24 05:05:26;;;;;;;;;;;;;;;;;;5092714;28;3133;-59
2023/08/24 05:07:54;;;;;;;;;;;;;;;;;;5086800;28;5208;-59
2023/08/24 05:10:19;;;;;;;;;;;;;;;;;;5058640;28;5047;-57
2023/08/24 05:12:45;;;;;;;;;;;;;;;;;;5069095;28;5071;-60
2023/08/24 05:15:10;;;;;;;;;;;;;;;;;;5067859;28;5647;-58
2023/08/24 05:17:35;;;;;;;;;;;;;;;;;;5071802;28;5063;-59
2023/08/24 05:20:00;;;;;;;;;;;;;;;;;;5095359;28;3257;-59
2023/08/24 05:22:26;;;;;;;;;;;;;;;;;;5086800;28;4804;-60
2023/08/24 05:24:51;;;;;;;;;;;;;;;;;;5096225;28;4657;-59
2023/08/24 05:27:16;;;;;;;;;;;;;;;;;;5095582;28;4528;-59
2023/08/24 05:29:42;;;;;;;;;;;;;;;;;;5097774;28;4491;-58
2023/08/24 05:32:07;;;;;;;;;;;;;;;;;;5088893;28;3406;-59
2023/08/24 05:34:32;;;;;;;;;;;;;;;;;;5084541;28;5019;-59
2023/08/24 05:36:58;;;;;;;;;;;;;;;;;;5096367;28;4621;-60
2023/08/24 05:39:23;;;;;;;;;;;;;;;;;;5094683;28;4950;-59
2023/08/24 05:41:52;;;;;;;;;;;;;;;;;;5067412;28;5083;-60
2023/08/24 05:44:17;;;;;;;;;;;;;;;;;;5093684;28;3335;-62
2023/08/24 05:46:42;;;;;;;;;;;;;;;;;;5089565;28;5125;-59
2023/08/24 05:49:08;;;;;;;;;;;;;;;;;;5084758;28;4978;-62
2023/08/24 05:51:33;;;;;;;;;;;;;;;;;;5086818;28;5109;-60
2023/08/24 05:53:58;;;;;;;;;;;;;;;;;;5083584;28;4866;-59
2023/08/24 05:56:24;;;;;;;;;;;;;;;;;;5092870;28;3360;-60
2023/08/24 05:58:49;;;;;;;;;;;;;;;;;;5100647;28;5001;-61
2023/08/24 06:01:14;;;;;;;;;;;;;;;;;;5093900;28;5009;-60
2023/08/24 06:03:40;;;;;;;;;;;;;;;;;;5075344;28;5059;-60
2023/08/24 06:06:05;;;;;;;;;;;;;;;;;;5093488;28;4503;-59
2023/08/24 06:08:31;;;;;;;;;;;;;;;;;;5099663;28;4461;-60
2023/08/24 06:10:56;;;;;;;;;;;;;;;;;;5062689;28;1173;-60
2023/08/24 06:13:22;;;;;;;;;;;;;;;;;;5099241;28;4594;-60
2023/08/24 06:15:47;;;;;;;;;;;;;;;;;;5102435;28;5055;-60
2023/08/24 06:18:12;;;;;;;;;;;;;;;;;;5102734;28;4979;-59
2023/08/24 06:20:38;;;;;;;;;;;;;;;;;;5096574;28;4900;-60
2023/08/24 06:23:03;;;;;;;;;;;;;;;;;;5110451;27;1394;-59
2023/08/24 06:25:28;;;;;;;;;;;;;;;;;;5102460;28;4975;-60
2023/08/24 06:27:53;;;;;;;;;;;;;;;;;;5098931;28;5007;-60
2023/08/24 06:30:19;;;;;;;;;;;;;;;;;;5091912;28;4916;-60
2023/08/24 06:32:44;;;;;;;;;;;;;;;;;;5076774;28;4666;-60
2023/08/24 06:35:10;;;;;;;;;;;;;;;;;;5090660;28;5074;-60
2023/08/24 06:37:38;;;;;;;;;;;;;;;;;;5095799;28;4407;-60
2023/08/24 06:40:04;;;;;;;;;;;;;;;;;;5098275;28;4443;-59
2023/08/24 06:42:29;;;;;;;;;;;;;;;;;;5089685;28;4573;-60
2023/08/24 06:44:55;;;;;;;;;;;;;;;;;;5097811;28;4618;-61
2023/08/24 06:47:20;;;;;;;;;;;;;;;;;;5096801;28;3232;-59
2023/08/24 06:49:45;;;;;;;;;;;;;;;;;;5089564;28;5051;-60
2023/08/24 06:52:11;;;;;;;;;;;;;;;;;;5093134;28;5043;-59
2023/08/24 06:54:36;;;;;;;;;;;;;;;;;;5092716;28;4547;-60
2023/08/24 06:57:01;;;;;;;;;;;;;;;;;;5078062;28;5589;-60
2023/08/24 06:59:26;;;;;;;;;;;;;;;;;;5068757;28;1283;-61
2023/08/24 07:01:52;;;;;;;;;;;;;;;;;;5072138;28;4881;-60
2023/08/24 07:04:17;;;;;;;;;;;;;;;;;;5070613;28;5069;-59
2023/08/24 07:06:43;;;;;;;;;;;;;;;;;;5070760;28;4872;-59
2023/08/24 07:09:08;;;;;;;;;;;;;;;;;;5076784;28;5140;-59
2023/08/24 07:11:34;;;;;;;;;;;;;;;;;;5077113;28;4919;-59
2023/08/24 07:13:59;;;;;;;;;;;;;;;;;;5078570;28;1918;-59
2023/08/24 07:16:24;;;;;;;;;;;;;;;;;;5071331;28;5183;-59
2023/08/24 07:18:50;;;;;;;;;;;;;;;;;;5088045;28;4995;-59
2023/08/24 07:21:16;;;;;;;;;;;;;;;;;;5071915;28;4900;-59
2023/08/24 07:23:41;;;;;;;;;;;;;;;;;;5071551;28;5133;-60
2023/08/24 07:26:08;;;;;;;;;;;;;;;;;;5072563;28;3422;-60
2023/08/24 07:28:33;;;;;;;;;;;;;;;;;;5062675;28;5229;-58
2023/08/24 07:30:59;;;;;;;;;;;;;;;;;;5075709;28;4467;-60
2023/08/24 07:33:24;;;;;;;;;;;;;;;;;;5073981;28;5063;-59
2023/08/24 07:35:50;;;;;;;;;;;;;;;;;;5069654;28;5046;-59
2023/08/24 07:38:15;;;;;;;;;;;;;;;;;;5079379;28;1183;-59
2023/08/24 07:40:40;;;;;;;;;;;;;;;;;;5082019;28;5001;-60
2023/08/24 07:43:05;;;;;;;;;;;;;;;;;;5068121;28;5105;-59
2023/08/24 07:45:31;;;;;;;;;;;;;;;;;;5070125;28;4596;-59
2023/08/24 07:47:56;;;;;;;;;;;;;;;;;;5072168;28;4962;-59
2023/08/24 07:50:22;;;;;;;;;;;;;;;;;;5069241;28;1294;-59
2023/08/24 07:52:48;;;;;;;;;;;;;;;;;;5066757;28;4484;-59
2023/08/24 07:55:13;;;;;;;;;;;;;;;;;;5057600;28;4656;-59
2023/08/24 07:57:39;;;;;;;;;;;;;;;;;;5069195;28;4473;-60
2023/08/24 08:00:05;;;;;;;;;;;;;;;;;;5063387;28;4568;-59
2023/08/24 08:02:32;;;;;;;;;;;;;;;;;;5045424;28;5059;-59
2023/08/24 08:04:58;;;;;;;;;;;;;;;;;;5049671;28;1438;-59
2023/08/24 08:07:23;;;;;;;;;;;;;;;;;;5067609;28;4953;-60
2023/08/24 08:09:48;;;;;;;;;;;;;;;;;;5053645;28;4620;-60
2023/08/24 08:12:13;;;;;;;;;;;;;;;;;;5047318;28;5034;-60
2023/08/24 08:14:39;;;;;;;;;;;;;;;;;;5063788;28;4851;-60
2023/08/24 08:17:04;;;;;;;;;;;;;;;;;;5046604;28;3090;-59
2023/08/24 08:19:30;;;;;;;;;;;;;;;;;;5046263;28;5052;-60
2023/08/24 08:21:55;;;;;;;;;;;;;;;;;;5056178;28;5169;-60
2023/08/24 08:24:21;;;;;;;;;;;;;;;;;;5067736;28;5332;-60
2023/08/24 08:26:46;;;;;;;;;;;;;;;;;;5071085;28;4997;-59
2023/08/24 08:29:11;;;;;;;;;;;;;;;;;;5068027;28;1480;-59
2023/08/24 08:31:37;;;;;;;;;;;;;;;;;;5046103;28;5032;-59
2023/08/24 08:34:04;;;;;;;;;;;;;;;;;;5067493;28;4981;-59
2023/08/24 08:36:29;;;;;;;;;;;;;;;;;;5061617;28;5114;-58
2023/08/24 08:38:55;;;;;;;;;;;;;;;;;;5054156;28;5029;-58
2023/08/24 08:41:21;;;;;;;;;;;;;;;;;;5051359;28;1246;-58
2023/08/24 08:43:47;;;;;;;;;;;;;;;;;;5050517;28;4804;-58
2023/08/24 08:46:13;;;;;;;;;;;;;;;;;;5051308;28;5033;-58
2023/08/24 08:48:38;;;;;;;;;;;;;;;;;;5053060;28;5218;-60
2023/08/24 08:51:04;;;;;;;;;;;;;;;;;;5047979;28;5073;-58
2023/08/24 08:53:29;;;;;;;;;;;;;;;;;;5051269;28;4772;-60
2023/08/24 08:55:55;;;;;;;;;;;;;;;;;;5085876;28;1261;-59
2023/08/24 08:58:20;;;;;;;;;;;;;;;;;;5072222;28;5013;-58
2023/08/24 09:00:46;;;;;;;;;;;;;;;;;;5058568;28;4486;-58
2023/08/24 09:03:11;;;;;;;;;;;;;;;;;;5089939;28;4475;-59
2023/08/24 09:05:36;;;;;;;;;;;;;;;;;;5075298;28;5026;-61
2023/08/24 09:08:03;;;;;;;;;;;;;;;;;;5083724;28;1272;-60
2023/08/24 09:10:28;;;;;;;;;;;;;;;;;;5087368;28;5067;-69
2023/08/24 09:12:53;;;;;;;;;;;;;;;;;;5077584;28;4964;-61
2023/08/24 09:15:26;;;;;;;;;;;;;;;;;;5070737;28;4576;-57
2023/08/24 09:17:51;;;;;;;;;;;;;;;;;;5063219;28;4639;-58
2023/08/24 09:20:17;;;;;;;;;;;;;;;;;;5069450;28;1064;-58
2023/08/24 09:22:44;;;;;;;;;;;;;;;;;;5071956;28;5303;-73
2023/08/24 09:25:09;;;;;;;;;;;;;;;;;;5064114;28;4993;-73
2023/08/24 09:27:34;;;;;;;;;;;;;;;;;;5068709;28;4978;-73
2023/08/24 09:30:00;;;;;;;;;;;;;;;;;;5054809;28;4473;-72
2023/08/24 09:32:28;;;;;;;;;;;;;;;;;;5072980;28;1320;-72
2023/08/24 09:34:53;;;;;;;;;;;;;;;;;;5064244;28;5291;-73
2023/08/24 09:37:19;;;;;;;;;;;;;;;;;;5067058;28;4831;-72
2023/08/24 09:39:45;;;;;;;;;;;;;;;;;;5083414;28;4627;-72
2023/08/24 09:42:10;;;;;;;;;;;;;;;;;;5081235;28;4868;-72
2023/08/24 09:44:36;;;;;;;;;;;;;;;;;;5048353;28;5135;-71
2023/08/24 09:47:01;;;;;;;;;;;;;;;;;;5071934;28;2031;-72
2023/08/24 09:49:27;;;;;;;;;;;;;;;;;;5073719;28;5029;-72
2023/08/24 09:51:52;;;;;;;;;;;;;;;;;;5085486;28;5071;-72
2023/08/24 09:54:18;;;;;;;;;;;;;;;;;;5079814;28;5030;-72
2023/08/24 09:56:44;;;;;;;;;;;;;;;;;;5065712;28;4515;-71
2023/08/24 09:59:13;;;;;;;;;;;;;;;;;;5067725;28;1073;-72
2023/08/24 10:01:42;;;;;;;;;;;;;;;;;;5064867;28;4632;-72
2023/08/24 10:04:07;;;;;;;;;;;;;;;;;;5071547;28;4827;-57
2023/08/24 10:06:33;;;;;;;;;;;;;;;;;;5061472;28;4985;-59
2023/08/24 10:09:04;;;;;;;;;;;;;;;;;;5069345;28;5177;-58
2023/08/24 10:11:29;;;;;;;;;;;;;;;;;;5045042;28;4722;-57
2023/08/24 10:13:54;;;;;;;;;;;;;;;;;;5057872;28;1925;-58
2023/08/24 10:16:19;;;;;;;;;;;;;;;;;;5068999;28;4504;-58
2023/08/24 10:18:45;;;;;;;;;;;;;;;;;;5072811;28;4455;-58
2023/08/24 10:21:10;;;;;;;;;;;;;;;;;;5050726;28;4856;-58
2023/08/24 10:23:35;;;;;;;;;;;;;;;;;;5070115;28;5095;-58
2023/08/24 10:26:04;;;;;;;;;;;;;;;;;;5067497;28;3287;-58
2023/08/24 10:28:29;;;;;;;;;;;;;;;;;;5063646;28;5079;-58
2023/08/24 10:30:54;;;;;;;;;;;;;;;;;;5070286;28;4463;-57
2023/08/24 10:33:20;;;;;;;;;;;;;;;;;;5067284;28;4666;-58
2023/08/24 10:35:46;;;;;;;;;;;;;;;;;;5071725;28;5110;-58
2023/08/24 10:38:25;;;;;;;;;;;;;;;;;;5053648;28;1302;-59
2023/08/24 10:40:51;;;;;;;;;;;;;;;;;;5071243;28;4984;-58
2023/08/24 10:43:16;;;;;;;;;;;;;;;;;;5067956;28;4521;-58
2023/08/24 10:45:57;;;;;;;;;;;;;;;;;;5070168;28;4894;-57
2023/08/24 10:48:27;;;;;;;;;;;;;;;;;;5056830;28;5116;-57
2023/08/24 10:51:11;;;;;;;;;;;;;;;;;;5034997;28;5117;-58
2023/08/24 10:54:00;;;;;;;;;;;;;;;;;;5082276;28;5019;-57
2023/08/24 10:56:35;;;;;;;;;;;;;;;;;;5058575;28;2197;-58
2023/08/24 10:59:30;;;;;;;;;;;;;;;;;;5055247;28;4930;-59
2023/08/24 11:01:55;;;;;;;;;;;;;;;;;;5055498;28;5228;-59
2023/08/24 11:04:20;;;;;;;;;;;;;;;;;;5069801;28;4448;-59
2023/08/24 11:06:53;;;;;;;;;;;;;;;;;;5067853;28;4994;-58
2023/08/24 11:09:18;;;;;;;;;;;;;;;;;;5061122;28;5353;-62
2023/08/24 11:11:54;;;;;;;;;;;;;;;;;;5069382;28;5239;-59
2023/08/24 11:14:21;;;;;;;;;;;;;;;;;;5059678;28;1909;-59
2023/08/24 11:16:47;;;;;;;;;;;;;;;;;;5071248;28;4973;-59
2023/08/24 11:19:12;;;;;;;;;;;;;;;;;;5070743;28;5057;-59
2023/08/24 11:21:38;;;;;;;;;;;;;;;;;;5066130;28;5008;-59
2023/08/24 11:24:04;;;;;;;;;;;;;;;;;;5061152;28;4442;-59
2023/08/24 11:26:29;;;;;;;;;;;;;;;;;;5051008;28;4643;-59
2023/08/24 11:28:55;;;;;;;;;;;;;;;;;;5066646;28;1325;-58
2023/08/24 11:31:20;;;;;;;;;;;;;;;;;;5063863;28;5071;-58
2023/08/24 11:33:45;;;;;;;;;;;;;;;;;;5064463;28;4623;-58
2023/08/24 11:36:12;;;;;;;;;;;;;;;;;;5071152;28;5252;-58
2023/08/24 11:38:40;;;;;;;;;;;;;;;;;;5067482;28;5229;-58
2023/08/24 11:41:11;;;;;;;;;;;;;;;;;;5065949;28;1168;-58
2023/08/24 11:43:37;;;;;;;;;;;;;;;;;;5047322;28;5026;-58
2023/08/24 11:46:02;;;;;;;;;;;;;;;;;;5069987;28;4989;-59
2023/08/24 11:48:29;;;;;;;;;;;;;;;;;;5088426;28;4999;-59
2023/08/24 11:50:54;;;;;;;;;;;;;;;;;;5084497;28;5058;-60
2023/08/24 11:53:19;;;;;;;;;;;;;;;;;;5081696;28;1921;-58
2023/08/24 11:55:45;;;;;;;;;;;;;;;;;;5071693;28;4941;-59
2023/08/24 11:58:14;;;;;;;;;;;;;;;;;;5071146;28;4975;-59
2023/08/24 12:00:39;;;;;;;;;;;;;;;;;;5046210;28;4567;-59
2023/08/24 12:03:04;;;;;;;;;;;;;;;;;;5074306;28;5055;-59
2023/08/24 12:05:29;;;;;;;;;;;;;;;;;;5054409;28;4607;-59
2023/08/24 12:07:54;;;;;;;;;;;;;;;;;;5050030;28;1231;-58
2023/08/24 12:10:20;;;;;;;;;;;;;;;;;;5062798;28;5186;-58
2023/08/24 12:12:46;;;;;;;;;;;;;;;;;;5069349;28;5012;-59
2023/08/24 12:15:20;;;;;;;;;;;;;;;;;;5055650;28;5184;-58
2023/08/24 12:17:49;;;;;;;;;;;;;;;;;;5072988;28;5121;-58
2023/08/24 12:20:21;;;;;;;;;;;;;;;;;;5074901;28;1140;-59
2023/08/24 12:22:51;;;;;;;;;;;;;;;;;;5068848;28;5016;-58
2023/08/24 12:25:16;;;;;;;;;;;;;;;;;;5070288;28;5038;-58
2023/08/24 12:27:42;;;;;;;;;;;;;;;;;;5071153;28;4973;-58
2023/08/24 12:30:07;;;;;;;;;;;;;;;;;;5063557;28;5155;-58
2023/08/24 12:32:45;;;;;;;;;;;;;;;;;;5072171;28;4428;-59
2023/08/24 12:35:10;;;;;;;;;;;;;;;;;;5062781;28;5006;-59
2023/08/24 12:37:36;;;;;;;;;;;;;;;;;;5067436;28;4839;-58
2023/08/24 12:40:02;;;;;;;;;;;;;;;;;;5056095;28;5311;-58
2023/08/24 12:42:27;;;;;;;;;;;;;;;;;;5049028;28;4522;-58
2023/08/24 12:44:52;;;;;;;;;;;;;;;;;;5036855;28;5138;-59
2023/08/24 12:47:18;;;;;;;;;;;;;;;;;;5045766;28;3360;-67
2023/08/24 12:49:43;;;;;;;;;;;;;;;;;;5045337;28;4958;-66
2023/08/24 12:52:08;;;;;;;;;;;;;;;;;;5060981;28;5012;-67
2023/08/24 12:54:33;;;;;;;;;;;;;;;;;;5063474;28;4502;-68
2023/08/24 12:56:59;;;;;;;;;;;;;;;;;;5074882;28;4994;-67
2023/08/24 12:59:24;;;;;;;;;;;;;;;;;;5066703;28;2274;-67
2023/08/24 13:01:49;;;;;;;;;;;;;;;;;;5061064;28;5567;-69
2023/08/24 13:04:15;;;;;;;;;;;;;;;;;;5081686;28;5098;-67
2023/08/24 13:06:40;;;;;;;;;;;;;;;;;;5072086;28;5037;-58
2023/08/24 13:09:06;;;;;;;;;;;;;;;;;;5061786;28;4588;-58
2023/08/24 13:11:31;;;;;;;;;;;;;;;;;;5057847;28;5186;-58
2023/08/24 13:13:57;;;;;;;;;;;;;;;;;;5042708;28;1930;-58
2023/08/24 13:16:22;;;;;;;;;;;;;;;;;;5062377;28;4910;-59
2023/08/24 13:18:47;;;;;;;;;;;;;;;;;;5068765;28;5152;-59
2023/08/24 13:21:12;;;;;;;;;;;;;;;;;;5068289;28;5030;-58
2023/08/24 13:23:38;;;;;;;;;;;;;;;;;;5076562;28;4904;-59
2023/08/24 13:26:03;;;;;;;;;;;;;;;;;;5070458;28;3255;-59
2023/08/24 13:28:29;;;;;;;;;;;;;;;;;;5053473;28;5063;-60
2023/08/24 13:30:54;;;;;;;;;;;;;;;;;;5069490;28;4693;-59
2023/08/24 13:33:20;;;;;;;;;;;;;;;;;;5066827;28;5169;-59
2023/08/24 13:35:45;;;;;;;;;;;;;;;;;;5062939;28;5093;-59
2023/08/24 13:38:10;;;;;;;;;;;;;;;;;;5040968;28;3164;-59
2023/08/24 13:40:36;;;;;;;;;;;;;;;;;;5044207;28;5109;-58
2023/08/24 13:43:01;;;;;;;;;;;;;;;;;;5039504;28;5202;-58
2023/08/24 13:45:26;;;;;;;;;;;;;;;;;;5044146;28;4462;-58
2023/08/24 13:47:51;;;;;;;;;;;;;;;;;;5044829;28;4960;-58
2023/08/24 13:50:17;;;;;;;;;;;;;;;;;;5046086;28;1037;-58
2023/08/24 13:52:42;;;;;;;;;;;;;;;;;;5043353;28;5040;-58
2023/08/24 13:55:07;;;;;;;;;;;;;;;;;;5067890;28;4975;-58
2023/08/24 13:57:33;;;;;;;;;;;;;;;;;;5065237;28;5032;-58
2023/08/24 13:59:59;;;;;;;;;;;;;;;;;;5066133;28;4476;-59
2023/08/24 14:02:24;;;;;;;;;;;;;;;;;;5063632;28;1364;-59
2023/08/24 14:04:50;;;;;;;;;;;;;;;;;;5065950;28;5260;-60
2023/08/24 14:07:16;;;;;;;;;;;;;;;;;;5086223;28;5040;-59
2023/08/24 14:09:41;;;;;;;;;;;;;;;;;;5085676;28;5020;-60
2023/08/24 14:12:06;;;;;;;;;;;;;;;;;;5086922;28;4678;-57
2023/08/24 14:14:31;;;;;;;;;;;;;;;;;;5084281;28;4952;-59
2023/08/24 14:16:57;;;;;;;;;;;;;;;;;;5084198;28;1375;-59
2023/08/24 14:19:22;;;;;;;;;;;;;;;;;;5086221;28;4950;-60
2023/08/24 14:21:48;;;;;;;;;;;;;;;;;;5070952;28;5206;-58
2023/08/24 14:24:13;;;;;;;;;;;;;;;;;;5070026;28;4492;-59
2023/08/24 14:26:39;;;;;;;;;;;;;;;;;;5085306;28;5012;-59
2023/08/24 14:29:04;;;;;;;;;;;;;;;;;;5084431;28;2433;-59
2023/08/24 14:31:29;;;;;;;;;;;;;;;;;;5083525;28;4859;-59
2023/08/24 14:33:55;;;;;;;;;;;;;;;;;;5084683;28;5141;-59
2023/08/24 14:36:20;;;;;;;;;;;;;;;;;;5071205;28;5027;-58
2023/08/24 14:38:46;;;;;;;;;;;;;;;;;;5086567;28;4953;-59
2023/08/24 14:41:11;;;;;;;;;;;;;;;;;;5085246;28;1449;-58
2023/08/24 14:43:37;;;;;;;;;;;;;;;;;;5083264;28;4664;-58
2023/08/24 14:46:02;;;;;;;;;;;;;;;;;;5079700;28;5366;-58
2023/08/24 14:48:27;;;;;;;;;;;;;;;;;;5084732;28;4483;-59
2023/08/24 14:50:52;;;;;;;;;;;;;;;;;;5085439;28;4991;-59
2023/08/24 14:53:18;;;;;;;;;;;;;;;;;;5082765;28;1359;-59
2023/08/24 14:55:43;;;;;;;;;;;;;;;;;;5085262;28;4944;-61
2023/08/24 14:58:08;;;;;;;;;;;;;;;;;;5082306;28;4437;-59
2023/08/24 15:00:34;;;;;;;;;;;;;;;;;;5083099;28;5043;-59
2023/08/24 15:02:59;;;;;;;;;;;;;;;;;;5084379;28;4999;-59
2023/08/24 15:05:24;;;;;;;;;;;;;;;;;;5079557;28;3246;-58
2023/08/24 15:07:50;;;;;;;;;;;;;;;;;;5067997;28;4541;-58
2023/08/24 15:10:16;;;;;;;;;;;;;;;;;;5083414;28;5104;-58
2023/08/24 15:12:42;;;;;;;;;;;;;;;;;;5065170;28;5288;-58
2023/08/24 15:15:07;;;;;;;;;;;;;;;;;;5078244;28;5204;-58
2023/08/24 15:17:33;;;;;;;;;;;;;;;;;;5078183;28;5071;-59
2023/08/24 15:19:58;;;;;;;;;;;;;;;;;;5079305;28;3286;-58
2023/08/24 15:22:24;;;;;;;;;;;;;;;;;;5081331;28;4984;-58
2023/08/24 15:24:49;;;;;;;;;;;;;;;;;;5082858;28;5139;-57
2023/08/24 15:27:14;;;;;;;;;;;;;;;;;;5079292;28;4695;-58
2023/08/24 15:29:39;;;;;;;;;;;;;;;;;;5080230;28;4683;-58
2023/08/24 15:32:05;;;;;;;;;;;;;;;;;;5082044;28;3367;-57
2023/08/24 15:34:30;;;;;;;;;;;;;;;;;;5059282;28;4928;-57
2023/08/24 15:36:55;;;;;;;;;;;;;;;;;;5084932;28;4646;-58
2023/08/24 15:39:20;;;;;;;;;;;;;;;;;;5082473;28;5089;-59
2023/08/24 15:41:46;;;;;;;;;;;;;;;;;;5083488;28;4666;-58
2023/08/24 15:44:11;;;;;;;;;;;;;;;;;;5079091;28;3156;-59
2023/08/24 15:46:36;;;;;;;;;;;;;;;;;;5082885;28;5060;-58
2023/08/24 15:49:01;;;;;;;;;;;;;;;;;;5083900;28;4535;-58
2023/08/24 15:51:27;;;;;;;;;;;;;;;;;;5083062;28;5102;-58
2023/08/24 15:53:52;;;;;;;;;;;;;;;;;;5081402;28;5033;-58
2023/08/24 15:56:17;;;;;;;;;;;;;;;;;;5065117;28;3281;-59
2023/08/24 15:58:42;;;;;;;;;;;;;;;;;;5060851;28;4566;-58
2023/08/24 16:01:08;;;;;;;;;;;;;;;;;;5055418;28;5048;-58
2023/08/24 16:03:33;;;;;;;;;;;;;;;;;;5062882;28;4694;-58
2023/08/24 16:05:58;;;;;;;;;;;;;;;;;;5068954;28;4465;-59
2023/08/24 16:08:24;;;;;;;;;;;;;;;;;;5067040;28;1388;-59
2023/08/24 16:10:49;;;;;;;;;;;;;;;;;;5063519;28;4994;-59
2023/08/24 16:13:15;;;;;;;;;;;;;;;;;;5063457;28;4711;-60
2023/08/24 16:15:40;;;;;;;;;;;;;;;;;;5064028;28;4958;-59
2023/08/24 16:18:05;;;;;;;;;;;;;;;;;;5066037;28;5136;-58
2023/08/24 16:20:30;;;;;;;;;;;;;;;;;;5070384;28;5217;-57
2023/08/24 16:22:56;;;;;;;;;;;;;;;;;;5063950;28;3173;-57
2023/08/24 16:25:21;;;;;;;;;;;;;;;;;;5068812;28;5044;-58
2023/08/24 16:27:46;;;;;;;;;;;;;;;;;;5067013;28;5145;-58
2023/08/24 16:30:12;;;;;;;;;;;;;;;;;;5063671;28;5012;-58
2023/08/24 16:32:37;;;;;;;;;;;;;;;;;;5067560;28;4553;-58
2023/08/24 16:35:02;;;;;;;;;;;;;;;;;;5069204;28;5000;-58
2023/08/24 16:37:28;;;;;;;;;;;;;;;;;;5067759;28;4416;-58
2023/08/24 16:39:53;;;;;;;;;;;;;;;;;;5070226;28;4969;-59
2023/08/24 16:42:18;;;;;;;;;;;;;;;;;;5064992;28;5279;-58
2023/08/24 16:44:43;;;;;;;;;;;;;;;;;;5065751;28;5157;-58
2023/08/24 16:47:09;;;;;;;;;;;;;;;;;;5063379;28;2366;-59
2023/08/24 16:49:34;;;;;;;;;;;;;;;;;;5064827;28;5250;-58
2023/08/24 16:51:59;;;;;;;;;;;;;;;;;;5069224;28;4461;-58
2023/08/24 16:54:25;;;;;;;;;;;;;;;;;;5067445;28;5157;-59